Time;durP1;ratioP1;P1;durP2;ratioP2;P2;SDS_P1;SDS_P2;PMS_P1;PMS_P2;Temp;Humidity;BMP_temperature;BMP_pressure;BME280_temperature;BME280_humidity;BME280_pressure;Samples;Min_cycle;Max_cycle;Signal;HPM_P1;HPM_P2
2021/07/26 00:00:47;;;;;;;;;;;;;;;18.87;79.01;100849.50;5115432;28;20092;-37
2021/07/26 00:03:13;;;;;;;8.23;4.68;;;;;;;18.53;81.45;100842.03;5114625;28;19957;-37
2021/07/26 00:05:38;;;;;;;;;;;;;;;18.88;78.80;100850.31;5115109;28;20027;-37
2021/07/26 00:08:03;;;;;;;5.53;4.47;;;;;;;18.75;81.16;100849.88;5114246;28;20367;-37
2021/07/26 00:10:29;;;;;;;;;;;;;;;18.86;78.91;100847.88;5115739;28;20313;-37
2021/07/26 00:12:54;;;;;;;8.15;5.68;;;;;;;18.54;82.05;100842.88;5114724;28;19908;-37
2021/07/26 00:15:19;;;;;;;;;;;;;;;18.73;79.81;100838.38;5115303;28;20027;-37
2021/07/26 00:17:45;;;;;;;6.32;4.88;;;;;;;18.66;81.96;100834.31;5114340;28;19915;-34
2021/07/26 00:20:11;;;;;;;;;;;;;;;18.73;79.50;100835.63;5114724;28;20458;-34
2021/07/26 00:22:38;;;;;;;9.52;5.32;;;;;;;18.52;82.01;100828.66;5114200;28;19907;-34
2021/07/26 00:25:05;;;;;;;6.68;5.15;;;;;;;18.39;82.73;100824.63;5114217;28;20035;-34
2021/07/26 00:27:31;;;;;;;9.25;6.05;;;;;;;18.39;82.87;100829.28;5114171;28;20367;-34
2021/07/26 00:29:56;;;;;;;;;;;;;;;18.55;82.21;100819.06;5114631;28;20016;-34
2021/07/26 00:32:21;;;;;;;6.87;6.07;;;;;;;18.31;83.56;100816.22;5113286;28;20367;-34
2021/07/26 00:34:46;;;;;;;;;;;;;;;18.48;81.20;100819.38;5114213;28;20474;-34
2021/07/26 00:37:12;;;;;;;5.97;5.17;;;;;;;18.38;82.88;100805.75;5114047;28;19994;-34
2021/07/26 00:39:37;;;;;;;;;;;;;;;18.54;80.37;100810.00;5114381;28;20118;-34
2021/07/26 00:42:03;;;;;;;8.35;5.07;;;;;;;18.48;82.99;100813.88;5114441;28;19946;-34
2021/07/26 00:44:29;;;;;;;;;;;;;;;18.59;80.48;100809.16;5114284;28;20459;-34
2021/07/26 00:46:56;;;;;;;8.77;5.18;;;;;;;18.40;82.28;100812.59;5113487;28;19922;-34
2021/07/26 00:49:23;;;;;;;7.28;5.88;;;;;;;18.37;82.40;100812.31;5113765;28;20028;-34
2021/07/26 00:51:54;;;;;;;8.85;5.50;;;;;;;18.28;82.56;100818.38;5114310;28;20020;-34
2021/07/26 00:54:22;;;;;;;6.38;5.55;;;;;;;18.26;83.14;100815.13;5113532;28;20072;-34
2021/07/26 00:56:49;;;;;;;6.75;5.72;;;;;;;18.27;82.79;100816.75;5113735;28;20024;-34
2021/07/26 00:59:15;;;;;;;8.00;5.72;;;;;;;18.13;82.68;100799.31;5113624;28;20436;-34
2021/07/26 01:01:41;;;;;;;10.45;6.43;;;;;;;18.10;83.60;100799.06;5113858;28;20042;-34
2021/07/26 01:04:07;;;;;;;;;;;;;;;18.41;80.91;100818.88;5114039;28;20456;-34
2021/07/26 01:06:32;;;;;;;9.80;6.10;;;;;;;18.22;83.41;100814.06;5113533;28;19985;-34
2021/07/26 01:08:57;;;;;;;;;;;;;;;18.43;80.55;100814.75;5113959;28;20043;-34
2021/07/26 01:11:23;;;;;;;8.90;5.70;;;;;;;18.18;83.47;100817.63;5113774;28;19915;-34
2021/07/26 01:13:48;;;;;;;;;;;;;;;18.38;81.60;100817.50;5113675;28;20277;-36
2021/07/26 01:16:14;;;;;;;10.68;5.80;;;;;;;18.20;83.75;100819.00;5113824;28;19908;-37
2021/07/26 01:18:39;;;;;;;;;;;;;;;18.37;81.27;100821.34;5113971;28;20024;-37
2021/07/26 01:21:06;;;;;;;9.90;6.05;;;;;;;18.14;84.09;100822.84;5113703;28;19908;-38
2021/07/26 01:23:34;;;;;;;11.10;5.38;;;;;;;18.09;83.71;100809.19;5113397;28;20028;-37
2021/07/26 01:26:00;;;;;;;8.43;6.15;;;;;;;18.06;83.58;100826.19;5113956;28;20026;-37
2021/07/26 01:28:29;;;;;;;9.40;5.68;;;;;;;18.06;84.13;100831.66;5113322;28;20084;-37
2021/07/26 01:30:56;;;;;;;6.20;5.35;;;;;;;18.10;84.28;100829.97;5113636;28;20019;-37
2021/07/26 01:33:21;;;;;;;7.70;5.90;;;;;;;18.01;84.47;100824.31;5113263;28;20024;-37
2021/07/26 01:35:47;;;;;;;;;;;;;;;18.20;82.29;100827.22;5113655;28;20148;-37
2021/07/26 01:38:12;;;;;;;9.10;5.18;;;;;;;17.98;83.73;100832.25;5113955;28;19908;-37
2021/07/26 01:40:40;;;;;;;;;;;;;;;18.17;81.57;100829.69;5113632;28;20050;-37
2021/07/26 01:43:09;;;;;;;5.47;4.60;;;;;;;18.07;83.70;100832.47;5113523;28;19903;-37
2021/07/26 01:45:34;;;;;;;8.63;5.22;;;;;;;17.93;83.41;100821.31;5117054;28;20023;-37
2021/07/26 01:48:06;;;;;;;;;;;;;;;18.17;81.59;100837.91;5117642;28;20133;-37
2021/07/26 01:50:39;;;;;;;6.63;4.85;;;;;;;17.87;83.92;100820.53;5118034;28;19911;-37
2021/07/26 01:53:05;;;;;;;6.28;4.88;;;;;;;17.82;83.71;100836.16;5117684;28;20355;-37
2021/07/26 01:55:30;;;;;;;;;;;;;;;18.06;81.87;100836.31;5117621;28;20034;-36
2021/07/26 01:57:56;;;;;;;6.25;4.35;;;;;;;17.77;83.72;100823.31;5117782;28;20379;-37
2021/07/26 02:00:22;;;;;;;;;;;;;;;18.03;81.69;100843.16;5117786;28;20095;-37
2021/07/26 02:02:47;;;;;;;6.00;4.80;;;;;;;17.81;83.50;100843.50;5117055;28;20010;-36
2021/07/26 02:05:13;;;;;;;;;;;;;;;18.00;81.69;100843.72;5117717;27;20456;-37
2021/07/26 02:07:38;;;;;;;7.00;4.55;;;;;;;17.88;83.34;100837.75;5117079;28;19907;-37
2021/07/26 02:10:03;;;;;;;;;;;;;;;18.00;81.33;100844.53;5116131;28;20527;-37
2021/07/26 02:12:28;;;;;;;4.95;4.22;;;;;;;17.87;83.73;100849.81;5116894;28;19908;-37
2021/07/26 02:14:54;;;;;;;;;;;;;;;18.01;81.32;100843.44;5117524;28;20028;-37
2021/07/26 02:17:19;;;;;;;5.80;4.53;;;;;;;17.85;83.43;100847.34;5117021;28;19914;-37
2021/07/26 02:19:44;;;;;;;8.05;5.35;;;;;;;17.74;84.11;100843.81;5116470;28;20277;-37
2021/07/26 02:22:09;;;;;;;;;;;;;;;17.96;81.82;100848.13;5117193;28;20035;-37
2021/07/26 02:24:35;;;;;;;6.90;4.97;;;;;;;17.57;84.11;100824.16;5116883;28;19907;-36
2021/07/26 02:27:00;;;;;;;;;;;;;;;17.93;81.61;100837.75;5117209;28;20352;-37
2021/07/26 02:29:25;;;;;;;9.70;5.43;;;;;;;17.65;83.93;100842.72;5116440;28;19925;-37
2021/07/26 02:31:51;;;;;;;;;;;;;;;17.88;81.94;100845.97;5117261;28;20076;-37
2021/07/26 02:34:16;;;;;;;6.68;4.82;;;;;;;17.56;83.81;100833.44;5116843;28;19911;-36
2021/07/26 02:36:41;;;;;;;;;;;;;;;17.82;81.57;100852.56;5116803;28;20423;-37
2021/07/26 02:39:07;;;;;;;5.30;4.70;;;;;;;17.56;84.09;100852.59;5116292;27;20332;-37
2021/07/26 02:41:32;;;;;;;;;;;;;;;17.73;81.81;100850.38;5117348;28;20027;-37
2021/07/26 02:43:57;;;;;;;5.60;4.97;;;;;;;17.46;84.24;100841.69;5116229;28;20002;-37
2021/07/26 02:46:23;;;;;;;6.65;5.35;;;;;;;17.47;84.24;100846.03;5116265;28;20301;-37
2021/07/26 02:48:49;;;;;;;7.60;4.97;;;;;;;17.46;84.62;100849.88;5115875;28;20061;-36
2021/07/26 02:51:14;;;;;;;;;;;;;;;17.65;82.19;100847.38;5116850;28;20023;-37
2021/07/26 02:53:41;;;;;;;9.52;4.97;;;;;;;17.50;84.13;100846.31;5116743;28;20332;-37
2021/07/26 02:56:10;;;;;;;6.70;5.28;;;;;;;17.44;84.13;100852.91;5115672;28;20038;-37
2021/07/26 02:58:36;;;;;;;7.30;5.25;;;;;;;17.31;83.45;100828.03;5116058;28;20050;-37
2021/07/26 03:01:02;;;;;;;6.50;4.97;;;;;;;17.32;84.34;100848.81;5115882;28;20046;-37
2021/07/26 03:03:28;;;;;;;7.00;4.53;;;;;;;17.27;84.21;100837.88;5115897;27;20016;-36
2021/07/26 03:05:53;;;;;;;;;;;;;;;17.56;82.15;100858.06;5116584;28;20103;-35
2021/07/26 03:08:18;;;;;;;8.90;4.82;;;;;;;17.35;83.76;100848.28;5115204;28;19915;-34
2021/07/26 03:10:43;;;;;;;;;;;;;;;17.57;82.27;100869.81;5115919;28;20461;-34
2021/07/26 03:13:09;;;;;;;7.47;5.17;;;;;;;17.31;83.73;100849.91;5115706;28;19914;-34
2021/07/26 03:15:35;;;;;;;;;;;;;;;17.56;82.07;100869.00;5115719;28;20023;-34
2021/07/26 03:18:00;;;;;;;7.47;5.15;;;;;;;17.23;83.97;100852.13;5116299;28;19956;-35
2021/07/26 03:20:25;;;;;;;;;;;;;;;17.50;82.32;100861.91;5115977;28;20463;-35
2021/07/26 03:23:10;;;;;;;7.85;5.35;;;;;;;17.39;83.59;100866.56;5115748;28;19907;-35
2021/07/26 03:25:40;;;;;;;5.95;5.25;;;;;;;17.32;83.94;100865.19;5115999;28;20027;-35
2021/07/26 03:28:05;;;;;;;6.60;5.38;;;;;;;17.20;84.68;100869.06;5115410;28;20051;-35
2021/07/26 03:30:31;;;;;;;6.32;5.28;;;;;;;17.27;84.53;100870.69;5115668;28;20452;-35
2021/07/26 03:32:56;;;;;;;;;;;;;;;17.40;82.94;100868.22;5115712;28;20015;-35
2021/07/26 03:35:22;;;;;;;5.72;4.75;;;;;;;17.22;85.36;100876.97;5115631;28;20034;-35
2021/07/26 03:37:48;;;;;;;6.45;4.82;;;;;;;17.24;85.34;100875.63;5115146;28;20118;-35
2021/07/26 03:40:14;;;;;;;5.90;5.15;;;;;;;17.17;85.53;100883.25;5115687;27;20102;-35
2021/07/26 03:42:40;;;;;;;;;;;;;;;17.35;83.54;100875.59;5115427;28;20016;-35
2021/07/26 03:45:07;;;;;;;7.55;4.88;;;;;;;17.13;85.22;100857.59;5115376;28;19990;-35
2021/07/26 03:47:33;;;;;;;5.28;4.60;;;;;;;17.22;85.29;100879.69;5114617;28;20026;-35
2021/07/26 03:49:58;;;;;;;6.50;4.40;;;;;;;17.20;85.38;100868.22;5115453;28;20020;-35
2021/07/26 03:52:23;;;;;;;;;;;;;;;17.40;83.24;100883.78;5115543;28;20088;-35
2021/07/26 03:54:49;;;;;;;5.63;5.10;;;;;;;17.19;84.38;100872.06;5114899;28;19903;-35
2021/07/26 03:57:14;;;;;;;;;;;;;;;17.36;83.25;100885.44;5114282;28;20092;-35
2021/07/26 03:59:40;;;;;;;7.97;5.23;;;;;;;17.16;85.08;100878.06;5114765;28;19943;-35
2021/07/26 04:02:05;;;;;;;;;;;;;;;17.39;83.29;100887.63;5115120;28;20752;-35
2021/07/26 04:04:30;;;;;;;8.53;4.90;;;;;;;17.18;85.25;100895.84;5114980;28;19907;-35
2021/07/26 04:07:02;;;;;;;7.05;5.40;;;;;;;17.28;85.30;100903.22;5113824;28;20273;-35
2021/07/26 04:09:36;;;;;;;8.07;5.03;;;;;;;17.17;85.88;100902.38;5115267;28;20049;-40
2021/07/26 04:12:05;;;;;;;5.60;4.78;;;;;;;17.22;85.86;100898.81;5115034;28;20055;-35
2021/07/26 04:14:35;;;;;;;7.95;5.30;;;;;;;16.93;85.72;100846.66;5114600;28;20015;-35
2021/07/26 04:17:00;;;;;;;7.78;5.10;;;;;;;17.27;85.69;100895.28;5114913;28;20394;-36
2021/07/26 04:19:25;;;;;;;6.20;4.57;;;;;;;17.27;85.89;100896.09;5114713;28;20034;-35
2021/07/26 04:21:54;;;;;;;;;;;;;;;17.42;84.37;100912.50;5114930;28;20266;-36
2021/07/26 04:24:20;;;;;;;4.78;4.05;;;;;;;17.35;85.62;100905.66;5114984;28;19907;-35
2021/07/26 04:26:45;;;;;;;7.20;4.70;;;;;;;17.21;86.10;100894.47;5114715;27;20088;-36
2021/07/26 04:29:10;;;;;;;;;;;;;;;17.47;84.13;100911.66;5114489;28;20721;-35
2021/07/26 04:31:36;;;;;;;7.23;4.17;;;;;;;17.28;85.76;100902.41;5114413;28;19977;-36
2021/07/26 04:34:01;;;;;;;;;;;;;;;17.49;84.36;100915.75;5114261;28;20270;-35
2021/07/26 04:36:26;;;;;;;6.37;4.40;;;;;;;17.48;85.33;100913.31;5114060;28;19913;-35
2021/07/26 04:38:51;;;;;;;;;;;;;;;17.56;83.66;100915.47;5112640;28;20042;-35
2021/07/26 04:41:17;;;;;;;4.87;4.23;;;;;;;17.38;85.64;100913.31;5114564;28;19951;-35
2021/07/26 04:43:42;;;;;;;7.45;4.57;;;;;;;17.40;85.80;100911.94;5113935;28;20338;-35
2021/07/26 04:46:09;;;;;;;;;;;;;;;17.56;84.17;100915.47;5114326;28;20072;-35
2021/07/26 04:48:35;;;;;;;5.68;4.45;;;;;;;17.38;85.44;100900.47;5113626;28;20278;-37
2021/07/26 04:51:00;;;;;;;;;;;;;;;17.57;83.69;100911.66;5114296;28;20032;-35
2021/07/26 04:53:25;;;;;;;7.33;4.43;;;;;;;17.50;85.25;100911.94;5113808;28;19911;-35
2021/07/26 04:55:50;;;;;;;6.73;4.50;;;;;;;17.44;85.64;100914.94;5114022;28;20265;-35
2021/07/26 04:58:16;;;;;;;;;;;;;;;17.59;83.90;100919.59;5114109;28;20261;-35
2021/07/26 05:00:41;;;;;;;5.70;4.60;;;;;;;17.37;85.92;100908.94;5113687;28;19949;-35
2021/07/26 05:03:07;;;;;;;9.95;4.82;;;;;;;17.56;85.16;100914.66;5113342;28;20269;-35
2021/07/26 05:05:36;;;;;;;6.55;5.07;;;;;;;17.52;85.25;100917.13;5113969;28;20083;-35
2021/07/26 05:08:02;;;;;;;6.65;4.55;;;;;;;17.54;85.25;100909.47;5113231;28;20114;-35
2021/07/26 05:10:27;;;;;;;5.97;4.57;;;;;;;17.53;84.69;100905.09;5113462;28;20500;-35
2021/07/26 05:12:52;;;;;;;;;;;;;;;17.65;83.88;100918.47;5113872;28;20022;-35
2021/07/26 05:15:18;;;;;;;7.53;4.93;;;;;;;17.48;85.57;100918.78;5112633;28;19912;-35
2021/07/26 05:17:43;;;;;;;;;;;;;;;17.64;84.57;100912.19;5113768;28;20447;-35
2021/07/26 05:20:09;;;;;;;4.83;4.17;;;;;;;17.62;85.16;100910.84;5114093;28;20339;-35
2021/07/26 05:22:36;;;;;;;;;;;;;;;17.76;84.51;100920.09;5113696;28;20020;-35
2021/07/26 05:25:02;;;;;;;6.10;4.65;;;;;;;17.74;84.77;100914.09;5113473;28;20031;-35
2021/07/26 05:27:28;;;;;;;;;;;;;;;17.91;84.21;100911.88;5114226;28;20059;-35
2021/07/26 05:29:53;;;;;;;5.82;4.20;;;;;;;17.94;85.07;100907.75;5113269;28;19907;-35
2021/07/26 05:32:19;;;;;;;5.82;4.30;;;;;;;17.93;84.17;100898.75;5113635;28;20111;-35
2021/07/26 05:34:46;;;;;;;;;;;;;;;18.22;83.62;100909.03;5113301;28;20047;-36
2021/07/26 05:37:11;;;;;;;5.45;3.92;;;;;;;18.09;83.84;100899.50;5113779;28;19915;-35
2021/07/26 05:39:37;;;;;;;;;;;;;;;18.39;83.24;100914.97;5113531;28;20363;-35
2021/07/26 05:42:03;;;;;;;5.50;4.27;;;;;;;18.38;82.96;100920.72;5113934;28;19908;-35
2021/07/26 05:44:28;;;;;;;;;;;;;;;18.56;82.46;100922.00;5114075;28;20266;-35
2021/07/26 05:46:54;;;;;;;6.07;4.20;;;;;;;18.39;82.80;100894.97;5113181;28;20011;-35
2021/07/26 05:49:19;;;;;;;;;;;;;;;18.65;81.68;100912.09;5113215;28;20055;-35
2021/07/26 05:51:44;;;;;;;8.55;4.65;;;;;;;18.56;81.52;100920.09;5113367;28;20350;-35
2021/07/26 05:54:10;;;;;;;;;;;;;;;18.74;81.72;100922.22;5113796;28;20076;-35
2021/07/26 05:56:46;;;;;;;8.03;4.60;;;;;;;18.71;81.54;100911.81;5113807;28;19990;-35
2021/07/26 05:59:11;;;;;;;8.20;5.32;;;;;;;18.72;80.90;100916.19;5112939;28;20279;-35
2021/07/26 06:01:49;;;;;;;;;;;;;;;18.89;80.89;100920.47;5113177;28;20031;-35
2021/07/26 06:04:18;;;;;;;6.22;5.10;;;;;;;18.78;81.11;100915.03;5113211;28;19998;-35
2021/07/26 06:06:45;;;;;;;9.60;5.10;;;;;;;18.73;80.83;100917.81;5113353;28;20329;-35
2021/07/26 06:09:11;;;;;;;8.63;4.70;;;;;;;18.78;80.74;100919.69;5112596;28;20043;-35
2021/07/26 06:11:37;;;;;;;;;;;;;;;18.83;80.52;100916.09;5113353;28;20035;-35
2021/07/26 06:14:02;;;;;;;7.20;5.28;;;;;;;18.71;80.78;100920.03;5112854;28;19930;-35
2021/07/26 06:16:27;;;;;;;;;;;;;;;18.80;80.68;100916.69;5113337;28;20031;-35
2021/07/26 06:18:53;;;;;;;9.03;5.83;;;;;;;18.58;81.60;100925.28;5112599;28;20371;-35
2021/07/26 06:21:18;;;;;;;;;;;;;;;18.69;81.20;100915.91;5113075;28;20026;-35
2021/07/26 06:23:43;;;;;;;7.77;5.57;;;;;;;18.60;81.79;100926.66;5112851;28;20309;-35
2021/07/26 06:26:09;;;;;;;;;;;;;;;18.71;80.96;100924.69;5113304;28;20578;-35
2021/07/26 06:28:35;;;;;;;6.70;4.97;;;;;;;18.64;81.77;100911.28;5112934;28;20293;-35
2021/07/26 06:31:02;;;;;;;;;;;;;;;18.83;81.63;100927.88;5115237;28;20024;-35
2021/07/26 06:33:28;;;;;;;5.75;4.82;;;;;;;18.82;81.82;100922.69;5116042;28;20412;-35
2021/07/26 06:35:53;;;;;;;;;;;;;;;18.92;81.08;100923.44;5117043;28;20020;-35
2021/07/26 06:38:18;;;;;;;7.97;5.70;;;;;;;18.78;81.43;100925.19;5116333;28;20244;-35
2021/07/26 06:40:44;;;;;;;;;;;;;;;18.93;80.77;100925.06;5116950;28;20272;-35
2021/07/26 06:43:09;;;;;;;7.50;5.70;;;;;;;18.98;81.46;100925.06;5116211;28;20351;-35
2021/07/26 06:45:34;;;;;;;;;;;;;;;19.16;80.83;100920.81;5116724;28;20397;-36
2021/07/26 06:48:00;;;;;;;7.65;5.70;;;;;;;19.18;80.67;100915.88;5115795;28;19909;-36
2021/07/26 06:50:25;;;;;;;;;;;;;;;19.40;79.89;100920.88;5116505;28;20020;-35
2021/07/26 06:52:50;;;;;;;9.20;5.43;;;;;;;19.23;79.95;100918.56;5115954;28;19915;-35
2021/07/26 06:55:16;;;;;;;;;;;;;;;19.38;79.54;100914.06;5116445;28;20023;-35
2021/07/26 06:57:41;;;;;;;7.75;5.82;;;;;;;19.42;78.94;100915.94;5115870;28;19903;-36
2021/07/26 07:00:06;;;;;;;;;;;;;;;19.60;79.22;100924.56;5116643;28;20375;-36
2021/07/26 07:02:32;;;;;;;8.70;5.55;;;;;;;19.55;79.59;100923.47;5115818;28;19926;-36
2021/07/26 07:04:57;;;;;;;;;;;;;;;19.63;78.77;100926.75;5116288;28;20114;-36
2021/07/26 07:07:22;;;;;;;9.75;5.22;;;;;;;19.50;78.78;100917.22;5115332;28;19915;-36
2021/07/26 07:09:48;;;;;;;;;;;;;;;19.72;78.73;100925.81;5116345;28;20367;-36
2021/07/26 07:12:17;;;;;;;9.40;5.33;;;;;;;19.65;77.90;100930.81;5115346;28;20320;-36
2021/07/26 07:14:43;;;;;;;7.28;5.18;;;;;;;19.75;77.79;100929.88;5115388;28;20277;-36
2021/07/26 07:17:08;;;;;;;;;;;;;;;19.95;76.86;100934.34;5116925;28;20024;-36
2021/07/26 07:19:33;;;;;;;7.63;4.83;;;;;;;19.88;76.64;100936.63;5114361;28;19912;-36
2021/07/26 07:21:59;;;;;;;;;;;;;;;20.03;77.49;100934.53;5116079;28;20283;-36
2021/07/26 07:24:24;;;;;;;9.43;5.40;;;;;;;19.88;76.63;100914.69;5115438;28;20266;-36
2021/07/26 07:26:49;;;;;;;;;;;;;;;20.17;76.47;100937.38;5116094;28;20766;-36
2021/07/26 07:29:16;;;;;;;9.17;5.37;;;;;;;20.13;75.07;100947.31;5115710;28;19907;-36
2021/07/26 07:31:41;;;;;;;7.50;4.72;;;;;;;20.26;75.19;100943.88;5115556;28;20253;-36
2021/07/26 07:34:07;;;;;;;;;;;;;;;20.47;75.55;100944.44;5116029;27;20072;-36
2021/07/26 07:36:33;;;;;;;6.90;4.22;;;;;;;20.52;73.70;100941.63;5115208;28;19911;-36
2021/07/26 07:38:59;;;;;;;;;;;;;;;20.72;74.31;100947.97;5115368;28;20024;-36
2021/07/26 07:41:25;;;;;;;10.85;3.88;;;;;;;20.53;73.92;100950.69;5114951;28;20006;-36
2021/07/26 07:43:50;;;;;;;;;;;;;;;20.69;74.63;100948.53;5116147;28;20047;-36
2021/07/26 07:46:19;;;;;;;5.83;3.80;;;;;;;20.60;72.76;100942.91;5115387;28;20264;-36
2021/07/26 07:48:44;;;;;;;4.45;3.80;;;;;;;20.58;71.83;100956.13;5115164;28;20352;-36
2021/07/26 07:51:09;;;;;;;;;;;;;;;20.67;73.49;100948.84;5116089;28;20412;-35
2021/07/26 07:53:36;;;;;;;6.13;3.80;;;;;;;20.37;73.03;100954.72;5113610;28;19904;-35
2021/07/26 07:56:01;;;;;;;6.00;3.72;;;;;;;20.28;73.58;100951.81;5115561;28;20032;-35
2021/07/26 07:58:27;;;;;;;;;;;;;;;20.41;73.93;100955.78;5115127;28;20027;-35
2021/07/26 08:00:57;;;;;;;4.93;3.90;;;;;;;20.10;74.67;100936.91;5114754;28;19903;-35
2021/07/26 08:03:23;;;;;;;6.20;3.40;;;;;;;20.18;75.12;100965.66;5114404;28;20020;-35
2021/07/26 08:05:49;;;;;;;;;;;;;;;20.27;74.67;100959.22;5115328;28;20069;-35
2021/07/26 08:08:15;;;;;;;5.97;3.70;;;;;;;20.18;74.46;100958.22;5114182;28;19907;-35
2021/07/26 08:10:40;;;;;;;5.32;3.50;;;;;;;20.20;74.10;100960.69;5114522;28;20589;-35
2021/07/26 08:13:06;;;;;;;;;;;;;;;20.32;74.25;100961.09;5114605;28;20106;-35
2021/07/26 08:15:31;;;;;;;7.03;3.60;;;;;;;20.27;74.13;100963.91;5114246;27;20019;-35
2021/07/26 08:17:57;;;;;;;5.20;3.58;;;;;;;20.19;73.32;100965.34;5114408;28;20100;-35
2021/07/26 08:20:22;;;;;;;;;;;;;;;20.39;73.36;100972.53;5115326;28;20116;-35
2021/07/26 08:22:47;;;;;;;5.23;3.30;;;;;;;20.29;73.42;100954.25;5114356;28;19996;-35
2021/07/26 08:25:13;;;;;;;;;;;;;;;20.60;73.23;100967.66;5114696;28;20281;-35
2021/07/26 08:27:53;;;;;;;5.13;3.30;;;;;;;20.69;72.80;100963.13;5114143;28;20345;-35
2021/07/26 08:30:23;;;;;;;3.47;2.90;;;;;;;20.85;70.75;100969.22;5114910;28;20016;-35
2021/07/26 08:32:49;;;;;;;4.70;2.85;;;;;;;20.75;69.71;100950.94;5114052;28;20080;-35
2021/07/26 08:35:15;;;;;;;;;;;;;;;21.07;70.32;100960.34;5114523;28;20027;-36
2021/07/26 08:37:40;;;;;;;3.00;2.75;;;;;;;21.15;68.82;100940.44;5114047;28;19904;-35
2021/07/26 08:40:06;;;;;;;;;;;;;;;21.51;69.82;100957.19;5114350;28;20016;-35
2021/07/26 08:42:31;;;;;;;3.90;2.33;;;;;;;21.78;68.33;100945.44;5113885;28;19903;-35
2021/07/26 08:44:57;;;;;;;6.13;3.03;;;;;;;22.06;66.56;100948.22;5114648;28;20032;-35
2021/07/26 08:47:24;;;;;;;4.57;2.47;;;;;;;22.08;67.35;100948.72;5113850;28;20063;-35
2021/07/26 08:49:53;;;;;;;4.82;2.40;;;;;;;22.34;66.10;100955.38;5114092;28;20024;-35
2021/07/26 08:52:23;;;;;;;6.55;2.58;;;;;;;22.18;64.43;100959.56;5113917;28;20028;-35
2021/07/26 08:54:50;;;;;;;4.25;2.20;;;;;;;21.96;64.21;100934.63;5112962;28;20527;-35
2021/07/26 08:57:16;;;;;;;4.63;2.40;;;;;;;21.92;65.10;100958.41;5114387;28;20024;-35
2021/07/26 08:59:43;;;;;;;4.78;2.40;;;;;;;21.67;65.60;100927.50;5113771;28;20034;-35
2021/07/26 09:02:08;;;;;;;3.97;2.47;;;;;;;21.89;66.36;100959.00;5113708;28;20019;-35
2021/07/26 09:04:34;;;;;;;3.17;2.08;;;;;;;21.82;66.65;100967.69;5113614;28;20431;-35
2021/07/26 09:07:04;;;;;;;3.67;2.42;;;;;;;21.71;67.91;100968.97;5113919;28;20016;-35
2021/07/26 09:09:47;;;;;;;4.95;2.13;;;;;;;21.69;66.77;100969.28;5113298;28;20077;-35
2021/07/26 09:12:33;;;;;;;2.78;2.17;;;;;;;21.46;66.66;100972.97;5113824;28;20035;-35
2021/07/26 09:15:02;;;;;;;4.43;2.20;;;;;;;21.29;66.61;100954.25;5113823;28;20038;-35
2021/07/26 09:17:45;;;;;;;4.22;2.42;;;;;;;21.46;66.77;100967.47;5113911;28;20050;-35
2021/07/26 09:20:12;;;;;;;4.55;2.50;;;;;;;21.36;67.27;100960.19;5113615;28;20047;-35
2021/07/26 09:22:40;;;;;;;4.15;2.58;;;;;;;21.42;67.67;100982.94;5113723;28;20098;-35
2021/07/26 09:25:13;;;;;;;6.28;2.50;;;;;;;21.59;67.44;100980.47;5113801;28;20054;-35
2021/07/26 09:27:38;;;;;;;3.20;2.38;;;;;;;21.47;66.88;100978.19;5112026;28;20030;-36
2021/07/26 09:30:14;;;;;;;4.75;2.17;;;;;;;21.46;66.94;100970.22;5113435;28;20112;-35
2021/07/26 09:32:40;;;;;;;;;;;;;;;21.60;67.11;100971.06;5114021;28;20093;-35
2021/07/26 09:35:07;;;;;;;3.45;2.28;;;;;;;21.35;66.93;100958.56;5114027;28;19920;-35
2021/07/26 09:37:32;;;;;;;3.88;2.15;;;;;;;21.45;66.72;100968.59;5113773;28;20496;-35
2021/07/26 09:40:21;;;;;;;4.07;2.22;;;;;;;21.51;67.65;100962.69;5112981;28;20023;-35
2021/07/26 09:42:48;;;;;;;5.78;2.20;;;;;;;21.49;67.53;100961.38;5112856;28;20031;-35
2021/07/26 09:45:24;;;;;;;2.97;2.10;;;;;;;21.69;66.88;100971.22;5113691;28;20034;-35
2021/07/26 09:48:05;;;;;;;4.95;2.00;;;;;;;22.09;66.97;100964.13;5111929;28;20023;-35
2021/07/26 09:50:36;;;;;;;3.38;2.10;;;;;;;22.49;66.28;100969.94;5113465;28;20039;-35
2021/07/26 09:53:21;;;;;;;4.28;2.40;;;;;;;22.50;64.59;100968.84;5113346;28;20066;-35
2021/07/26 09:55:49;;;;;;;2.90;2.17;;;;;;;22.10;63.52;100954.72;5113133;28;20031;-35
2021/07/26 09:58:16;;;;;;;2.60;1.75;;;;;;;22.01;64.65;100970.31;5112709;28;20035;-35
2021/07/26 10:00:43;;;;;;;2.28;1.75;;;;;;;21.78;65.32;100964.72;5113104;28;20076;-36
2021/07/26 10:03:11;;;;;;;6.13;2.45;;;;;;;21.66;66.97;100982.81;5112887;28;20024;-35
2021/07/26 10:05:39;;;;;;;3.92;2.33;;;;;;;21.51;69.40;100979.19;5114195;28;20444;-35
2021/07/26 10:08:05;;;;;;;4.75;2.45;;;;;;;21.42;68.87;100980.19;5116837;28;20020;-35
2021/07/26 10:10:36;;;;;;;4.28;3.15;;;;;;;21.44;69.10;100987.03;5117779;28;20050;-35
2021/07/26 10:13:03;;;;;;;4.65;3.13;;;;;;;21.37;67.16;100980.28;5117464;28;20026;-35
2021/07/26 10:15:30;;;;;;;3.92;3.53;;;;;;;21.32;67.49;100979.22;5116880;28;20019;-35
2021/07/26 10:17:56;;;;;;;4.38;3.45;;;;;;;21.43;67.57;100990.09;5116779;28;20134;-35
2021/07/26 10:20:28;;;;;;;5.63;3.50;;;;;;;21.39;68.27;100980.81;5117150;28;20019;-35
2021/07/26 10:23:06;;;;;;;4.57;3.50;;;;;;;21.39;68.11;100983.56;5117269;28;20344;-35
2021/07/26 10:25:40;;;;;;;5.55;3.92;;;;;;;21.39;67.77;100986.31;5116595;28;20528;-35
2021/07/26 10:28:11;;;;;;;3.55;3.25;;;;;;;21.39;68.89;100986.31;5116366;28;20141;-35
2021/07/26 10:30:38;;;;;;;4.80;3.85;;;;;;;21.23;69.10;100991.22;5116785;28;20028;-35
2021/07/26 10:33:05;;;;;;;6.70;3.70;;;;;;;21.04;70.17;100969.22;5116446;28;20028;-35
2021/07/26 10:35:39;;;;;;;4.78;3.85;;;;;;;21.10;69.08;100998.25;5116846;28;20053;-35
2021/07/26 10:38:09;;;;;;;4.03;3.15;;;;;;;21.07;68.78;100996.91;5117292;28;20088;-35
2021/07/26 10:40:42;;;;;;;5.30;3.90;;;;;;;21.01;70.02;101006.34;5116542;28;20023;-35
2021/07/26 10:43:13;;;;;;;7.80;4.07;;;;;;;21.01;73.01;101011.03;5116256;28;20031;-35
2021/07/26 10:45:50;;;;;;;7.30;4.78;;;;;;;20.93;73.58;100998.78;5116566;27;20038;-35
2021/07/26 10:48:27;;;;;;;7.05;5.70;;;;;;;20.94;75.48;100999.63;5116262;28;20102;-35
2021/07/26 10:50:54;;;;;;;7.43;4.85;;;;;;;20.93;76.21;100995.19;5116211;28;20059;-35
2021/07/26 10:53:39;;;;;;;6.57;5.47;;;;;;;21.03;74.48;100995.91;5115864;28;20339;-36
2021/07/26 10:56:06;;;;;;;8.15;5.30;;;;;;;21.19;73.63;100999.22;5100620;28;20118;-36
2021/07/26 10:58:38;;;;;;;7.30;5.22;;;;;;;21.27;75.56;100984.78;5114292;28;20379;-35
2021/07/26 11:01:30;;;;;;;7.35;4.80;;;;;;;21.24;74.46;100979.91;5116475;28;20030;-35
2021/07/26 11:03:57;;;;;;;7.05;4.75;;;;;;;21.40;72.24;100998.94;5116131;28;20102;-35
2021/07/26 11:06:34;;;;;;;8.23;4.78;;;;;;;21.73;73.15;101003.31;5116578;28;20332;-35
2021/07/26 11:09:18;;;;;;;6.53;4.32;;;;;;;22.15;72.45;100993.22;5115539;28;20071;-35
2021/07/26 11:11:53;;;;;;;10.23;5.82;;;;;;;22.47;70.73;100988.75;5115401;28;20030;-35
2021/07/26 11:14:19;;;;;;;5.30;4.10;;;;;;;22.73;69.64;100978.78;5116216;27;20095;-35
2021/07/26 11:16:51;;;;;;;6.07;5.05;;;;;;;23.00;70.08;100985.41;5115447;28;20455;-35
2021/07/26 11:19:29;;;;;;;4.68;3.58;;;;;;;23.02;66.13;100983.97;5115511;28;20118;-35
2021/07/26 11:21:55;;;;;;;6.97;3.90;;;;;;;22.93;65.71;100973.97;5115764;28;20016;-35
2021/07/26 11:24:38;;;;;;;5.85;3.33;;;;;;;23.09;64.49;100970.56;5115897;27;20030;-35
2021/07/26 11:27:04;;;;;;;5.75;3.58;;;;;;;23.27;64.48;100973.44;5115583;28;20020;-36
2021/07/26 11:29:30;;;;;;;4.85;3.53;;;;;;;23.57;63.61;100955.28;5115422;28;20080;-36
2021/07/26 11:31:59;;;;;;;4.78;3.33;;;;;;;23.60;60.88;100979.53;5115262;28;20020;-35
2021/07/26 11:34:28;;;;;;;3.58;3.08;;;;;;;23.24;61.39;100963.06;5115164;28;20016;-35
2021/07/26 11:37:08;;;;;;;3.65;3.10;;;;;;;23.10;62.20;100976.91;5115173;28;20098;-35
2021/07/26 11:39:51;;;;;;;4.07;3.20;;;;;;;23.04;61.87;100967.13;5115138;28;20107;-35
2021/07/26 11:42:28;;;;;;;6.28;3.45;;;;;;;22.97;62.88;100970.28;5115368;28;20119;-35
2021/07/26 11:44:53;;;;;;;3.75;3.35;;;;;;;23.17;62.11;100966.22;5115515;28;20020;-35